SFR373 FAOR-FAPE
Flight info
| Callsign | SFR373 |
|---|---|
| Flight time | 1h 22m |
| Altitude | 34000 |
| Route | OVALA1B OVALA UZ18 NEVEN UQ8 ALKAT |
| Aircraft | B738/M-SDE2E3FGHIRWXY/LB1 |
Departure
| Time | 2026-05-07 06:31 |
|---|---|
| Airport | O.R. Tambo International Airport (FAOR) |
Arrival
| Time | 2026-05-07 07:53 |
|---|---|
| Airport | Chief Dawid Stuurman International Airport (FAPE) |
| Time | Latitude | Longitude | Altitude | Speed | Heading |
|---|---|---|---|---|---|
| 2026-05-07 05:57 | -26.13685 | 28.23107 | 5546 ft | 0 kts | 6° |
| 2026-05-07 06:19 | -26.13691 | 28.23106 | 5546 ft | 4 kts | 6° |
| 2026-05-07 06:19 | -26.13715 | 28.23103 | 5548 ft | 3 kts | 6° |
| 2026-05-07 06:20 | -26.13737 | 28.23096 | 5551 ft | 4 kts | 56° |
| 2026-05-07 06:20 | -26.13742 | 28.23070 | 5548 ft | 4 kts | 95° |
| 2026-05-07 06:20 | -26.13741 | 28.23060 | 5550 ft | 0 kts | 96° |
| 2026-05-07 06:23 | -26.13745 | 28.23100 | 5547 ft | 7 kts | 96° |
| 2026-05-07 06:23 | -26.13750 | 28.23156 | 5546 ft | 7 kts | 96° |
| 2026-05-07 06:24 | -26.13756 | 28.23211 | 5550 ft | 7 kts | 96° |
| 2026-05-07 06:24 | -26.13761 | 28.23265 | 5546 ft | 7 kts | 97° |
| 2026-05-07 06:24 | -26.13763 | 28.23321 | 5546 ft | 7 kts | 89° |
| 2026-05-07 06:24 | -26.13773 | 28.23391 | 5550 ft | 11 kts | 104° |
| 2026-05-07 06:25 | -26.13785 | 28.23471 | 5554 ft | 10 kts | 77° |
| 2026-05-07 06:25 | -26.13701 | 28.23524 | 5553 ft | 19 kts | 16° |
| 2026-05-07 06:25 | -26.13568 | 28.23565 | 5550 ft | 20 kts | 15° |
| 2026-05-07 06:25 | -26.13439 | 28.23604 | 5551 ft | 19 kts | 15° |
| 2026-05-07 06:26 | -26.13314 | 28.23643 | 5548 ft | 18 kts | 15° |
| 2026-05-07 06:26 | -26.13193 | 28.23681 | 5545 ft | 18 kts | 15° |
| 2026-05-07 06:26 | -26.13066 | 28.23720 | 5545 ft | 19 kts | 16° |
| 2026-05-07 06:26 | -26.12939 | 28.23760 | 5546 ft | 19 kts | 15° |
| 2026-05-07 06:27 | -26.12817 | 28.23797 | 5548 ft | 18 kts | 15° |
| 2026-05-07 06:27 | -26.12699 | 28.23833 | 5547 ft | 17 kts | 15° |
| 2026-05-07 06:27 | -26.12585 | 28.23869 | 5543 ft | 17 kts | 17° |
| 2026-05-07 06:27 | -26.12476 | 28.23903 | 5540 ft | 16 kts | 15° |
| 2026-05-07 06:28 | -26.12371 | 28.23936 | 5541 ft | 15 kts | 15° |
| 2026-05-07 06:28 | -26.12269 | 28.23967 | 5536 ft | 15 kts | 15° |
| 2026-05-07 06:28 | -26.12172 | 28.23997 | 5534 ft | 14 kts | 18° |
| 2026-05-07 06:28 | -26.12080 | 28.24026 | 5533 ft | 14 kts | 14° |
| 2026-05-07 06:29 | -26.11991 | 28.24052 | 5531 ft | 13 kts | 15° |
| 2026-05-07 06:29 | -26.11904 | 28.24078 | 5528 ft | 13 kts | 15° |
| 2026-05-07 06:29 | -26.11839 | 28.24140 | 5527 ft | 13 kts | 83° |
| 2026-05-07 06:29 | -26.11851 | 28.24238 | 5529 ft | 13 kts | 85° |
| 2026-05-07 06:30 | -26.11905 | 28.24280 | 5529 ft | 13 kts | 195° |
| 2026-05-07 06:30 | -26.12007 | 28.24250 | 5529 ft | 29 kts | 197° |
| 2026-05-07 06:30 | -26.12409 | 28.24125 | 5539 ft | 90 kts | 195° |
| 2026-05-07 06:30 | -26.13191 | 28.23885 | 5547 ft | 141 kts | 195° |
| 2026-05-07 06:31 | -26.14219 | 28.23553 | 5828 ft | 160 kts | 196° |
| 2026-05-07 06:31 | -26.15331 | 28.23262 | 6353 ft | 171 kts | 194° |
| 2026-05-07 06:31 | -26.16496 | 28.22993 | 7099 ft | 165 kts | 199° |
| 2026-05-07 06:31 | -26.17609 | 28.22573 | 7642 ft | 177 kts | 201° |
| 2026-05-07 06:32 | -26.18875 | 28.22149 | 7780 ft | 200 kts | 199° |
| 2026-05-07 06:32 | -26.20283 | 28.21707 | 7937 ft | 220 kts | 198° |
| 2026-05-07 06:32 | -26.21817 | 28.21233 | 8220 ft | 236 kts | 198° |
| 2026-05-07 06:32 | -26.23482 | 28.20720 | 8429 ft | 257 kts | 198° |
| 2026-05-07 06:33 | -26.25296 | 28.20483 | 9041 ft | 271 kts | 178° |
| 2026-05-07 06:33 | -26.27134 | 28.21087 | 9843 ft | 282 kts | 159° |
| 2026-05-07 06:33 | -26.28788 | 28.22335 | 10489 ft | 296 kts | 145° |
| 2026-05-07 06:33 | -26.30211 | 28.24132 | 10651 ft | 330 kts | 122° |
| 2026-05-07 06:34 | -26.31111 | 28.26609 | 10848 ft | 353 kts | 119° |
| 2026-05-07 06:34 | -26.32570 | 28.28790 | 10967 ft | 361 kts | 146° |
| 2026-05-07 06:34 | -26.34670 | 28.30383 | 11302 ft | 371 kts | 152° |
| 2026-05-07 06:34 | -26.36889 | 28.31909 | 11821 ft | 377 kts | 153° |
| 2026-05-07 06:35 | -26.39151 | 28.33440 | 12378 ft | 383 kts | 153° |
| 2026-05-07 06:35 | -26.41446 | 28.34994 | 12900 ft | 389 kts | 153° |
| 2026-05-07 06:35 | -26.43780 | 28.36582 | 13409 ft | 396 kts | 153° |
| 2026-05-07 06:35 | -26.46125 | 28.38187 | 13856 ft | 404 kts | 152° |
| 2026-05-07 06:36 | -26.48535 | 28.39844 | 14312 ft | 410 kts | 152° |
| 2026-05-07 06:36 | -26.50973 | 28.41526 | 14854 ft | 413 kts | 152° |
| 2026-05-07 06:36 | -26.53424 | 28.43221 | 15412 ft | 416 kts | 153° |
| 2026-05-07 06:36 | -26.55893 | 28.44929 | 15916 ft | 420 kts | 153° |
| 2026-05-07 06:37 | -26.58391 | 28.46657 | 16396 ft | 424 kts | 153° |
| 2026-05-07 06:37 | -26.60909 | 28.48400 | 16871 ft | 428 kts | 153° |
| 2026-05-07 06:37 | -26.63454 | 28.50162 | 17362 ft | 432 kts | 153° |
| 2026-05-07 06:37 | -26.66018 | 28.51939 | 17829 ft | 436 kts | 153° |
| 2026-05-07 06:38 | -26.68611 | 28.53738 | 18271 ft | 440 kts | 153° |
| 2026-05-07 06:38 | -26.71227 | 28.55553 | 18692 ft | 443 kts | 153° |
| 2026-05-07 06:38 | -26.73827 | 28.57356 | 19201 ft | 443 kts | 152° |
| 2026-05-07 06:38 | -26.76443 | 28.59138 | 19863 ft | 438 kts | 156° |
| 2026-05-07 06:39 | -26.79298 | 28.60230 | 20167 ft | 432 kts | 177° |
| 2026-05-07 06:39 | -26.82262 | 28.60241 | 20539 ft | 424 kts | 194° |
| 2026-05-07 06:39 | -26.85100 | 28.59464 | 20971 ft | 417 kts | 206° |
| 2026-05-07 06:39 | -26.87637 | 28.57988 | 21406 ft | 408 kts | 221° |
| 2026-05-07 06:40 | -26.89901 | 28.56079 | 21846 ft | 408 kts | 223° |
| 2026-05-07 06:40 | -26.92137 | 28.54106 | 22241 ft | 411 kts | 224° |
| 2026-05-07 06:40 | -26.94377 | 28.52108 | 22632 ft | 413 kts | 224° |
| 2026-05-07 06:40 | -26.96642 | 28.50096 | 23036 ft | 415 kts | 224° |
| 2026-05-07 06:41 | -26.98916 | 28.48089 | 23428 ft | 417 kts | 224° |
| 2026-05-07 06:41 | -27.01209 | 28.46078 | 23772 ft | 420 kts | 223° |
| 2026-05-07 06:41 | -27.03522 | 28.44058 | 24131 ft | 421 kts | 224° |
| 2026-05-07 06:41 | -27.05844 | 28.42035 | 24509 ft | 422 kts | 224° |
| 2026-05-07 06:42 | -27.08141 | 28.40037 | 24848 ft | 423 kts | 224° |
| 2026-05-07 06:42 | -27.10468 | 28.38010 | 25158 ft | 424 kts | 224° |
| 2026-05-07 06:42 | -27.12803 | 28.35975 | 25482 ft | 426 kts | 224° |
| 2026-05-07 06:42 | -27.15150 | 28.33929 | 25782 ft | 427 kts | 224° |
| 2026-05-07 06:43 | -27.17501 | 28.31879 | 26081 ft | 429 kts | 224° |
| 2026-05-07 06:43 | -27.19863 | 28.29817 | 26382 ft | 430 kts | 225° |
| 2026-05-07 06:43 | -27.22228 | 28.27751 | 26675 ft | 432 kts | 225° |
| 2026-05-07 06:43 | -27.24601 | 28.25677 | 26961 ft | 433 kts | 225° |
| 2026-05-07 06:44 | -27.26984 | 28.23593 | 27237 ft | 434 kts | 225° |
| 2026-05-07 06:44 | -27.29371 | 28.21504 | 27503 ft | 436 kts | 225° |
| 2026-05-07 06:44 | -27.31767 | 28.19407 | 27754 ft | 437 kts | 225° |
| 2026-05-07 06:44 | -27.34174 | 28.17298 | 28018 ft | 439 kts | 225° |
| 2026-05-07 06:45 | -27.36584 | 28.15186 | 28285 ft | 440 kts | 225° |
| 2026-05-07 06:45 | -27.39008 | 28.13059 | 28525 ft | 442 kts | 225° |
| 2026-05-07 06:45 | -27.41434 | 28.10933 | 28885 ft | 441 kts | 225° |
| 2026-05-07 06:45 | -27.43843 | 28.08820 | 29330 ft | 438 kts | 225° |
| 2026-05-07 06:46 | -27.46252 | 28.06737 | 29769 ft | 438 kts | 222° |
| 2026-05-07 06:46 | -27.48846 | 28.04967 | 30129 ft | 445 kts | 215° |
| 2026-05-07 06:46 | -27.51712 | 28.03579 | 30435 ft | 454 kts | 206° |
| 2026-05-07 06:46 | -27.54732 | 28.02509 | 30714 ft | 456 kts | 205° |
| 2026-05-07 06:47 | -27.57773 | 28.01477 | 30972 ft | 456 kts | 205° |
| 2026-05-07 06:47 | -27.60817 | 28.00447 | 31236 ft | 456 kts | 205° |
| 2026-05-07 06:47 | -27.63848 | 27.99411 | 31520 ft | 455 kts | 206° |
| 2026-05-07 06:47 | -27.66868 | 27.98365 | 31842 ft | 454 kts | 205° |
| 2026-05-07 06:48 | -27.69883 | 27.97310 | 32093 ft | 454 kts | 206° |
| 2026-05-07 06:48 | -27.72901 | 27.96246 | 32345 ft | 454 kts | 206° |
| 2026-05-07 06:48 | -27.75915 | 27.95181 | 32615 ft | 453 kts | 206° |
| 2026-05-07 06:48 | -27.78919 | 27.94119 | 32889 ft | 452 kts | 206° |
| 2026-05-07 06:49 | -27.81918 | 27.93058 | 33154 ft | 452 kts | 206° |
| 2026-05-07 06:49 | -27.84919 | 27.91996 | 33418 ft | 451 kts | 206° |
| 2026-05-07 06:49 | -27.87909 | 27.90938 | 33682 ft | 450 kts | 207° |
| 2026-05-07 06:49 | -27.90896 | 27.89880 | 33920 ft | 450 kts | 207° |
| 2026-05-07 06:50 | -27.93889 | 27.88819 | 34092 ft | 451 kts | 207° |
| 2026-05-07 06:50 | -27.96894 | 27.87752 | 34079 ft | 454 kts | 206° |
| 2026-05-07 06:50 | -28.02903 | 27.85600 | 34079 ft | 451 kts | 207° |
| 2026-05-07 06:51 | -28.08811 | 27.83418 | 34071 ft | 448 kts | 207° |
| 2026-05-07 06:51 | -28.14718 | 27.81226 | 34083 ft | 445 kts | 207° |
| 2026-05-07 06:52 | -28.20603 | 27.79048 | 34079 ft | 444 kts | 207° |
| 2026-05-07 06:52 | -28.26472 | 27.76875 | 34079 ft | 444 kts | 207° |
| 2026-05-07 06:53 | -28.32362 | 27.74693 | 34080 ft | 445 kts | 207° |
| 2026-05-07 06:53 | -28.38240 | 27.72513 | 34084 ft | 448 kts | 207° |
| 2026-05-07 06:54 | -28.44175 | 27.70311 | 34071 ft | 450 kts | 207° |
| 2026-05-07 06:54 | -28.50138 | 27.68096 | 34075 ft | 451 kts | 207° |
| 2026-05-07 06:55 | -28.56122 | 27.65870 | 34082 ft | 454 kts | 206° |
| 2026-05-07 06:55 | -28.62131 | 27.63636 | 34078 ft | 455 kts | 206° |
| 2026-05-07 06:56 | -28.68154 | 27.61394 | 34061 ft | 454 kts | 206° |
| 2026-05-07 06:56 | -28.74154 | 27.59158 | 34065 ft | 453 kts | 206° |
| 2026-05-07 06:57 | -28.80109 | 27.56935 | 34102 ft | 452 kts | 206° |
| 2026-05-07 06:57 | -28.86095 | 27.54697 | 34075 ft | 452 kts | 206° |
| 2026-05-07 06:58 | -28.92078 | 27.52457 | 34059 ft | 451 kts | 206° |
| 2026-05-07 06:58 | -28.98027 | 27.50228 | 34059 ft | 449 kts | 206° |
| 2026-05-07 06:59 | -29.03959 | 27.48003 | 34060 ft | 448 kts | 206° |
| 2026-05-07 06:59 | -29.09890 | 27.45774 | 34079 ft | 448 kts | 205° |
| 2026-05-07 07:00 | -29.15814 | 27.43545 | 34072 ft | 448 kts | 205° |
| 2026-05-07 07:00 | -29.21708 | 27.41325 | 34069 ft | 448 kts | 205° |
| 2026-05-07 07:01 | -29.27642 | 27.39087 | 34060 ft | 448 kts | 205° |
| 2026-05-07 07:01 | -29.33568 | 27.36850 | 34054 ft | 449 kts | 205° |
| 2026-05-07 07:02 | -29.38504 | 27.34984 | 34073 ft | 449 kts | 205° |
| 2026-05-07 07:02 | -29.45409 | 27.32371 | 34061 ft | 450 kts | 205° |
| 2026-05-07 07:03 | -29.50395 | 27.30482 | 34060 ft | 450 kts | 205° |
| 2026-05-07 07:03 | -29.56301 | 27.28243 | 34059 ft | 450 kts | 205° |
| 2026-05-07 07:04 | -29.62243 | 27.25986 | 34059 ft | 449 kts | 205° |
| 2026-05-07 07:04 | -29.68187 | 27.23726 | 34065 ft | 450 kts | 205° |
| 2026-05-07 07:05 | -29.74133 | 27.21462 | 34060 ft | 450 kts | 205° |
| 2026-05-07 07:05 | -29.80087 | 27.19192 | 34055 ft | 451 kts | 205° |
| 2026-05-07 07:06 | -29.86049 | 27.16917 | 34073 ft | 451 kts | 204° |
| 2026-05-07 07:06 | -29.91972 | 27.14654 | 34087 ft | 451 kts | 204° |
| 2026-05-07 07:07 | -29.97967 | 27.12360 | 34063 ft | 451 kts | 204° |
| 2026-05-07 07:07 | -30.03879 | 27.10095 | 34067 ft | 450 kts | 204° |
| 2026-05-07 07:08 | -30.09823 | 27.07815 | 34044 ft | 450 kts | 204° |
| 2026-05-07 07:08 | -30.15766 | 27.05533 | 34062 ft | 450 kts | 204° |
| 2026-05-07 07:09 | -30.21706 | 27.03248 | 34054 ft | 450 kts | 204° |
| 2026-05-07 07:09 | -30.27641 | 27.00963 | 34040 ft | 449 kts | 204° |
| 2026-05-07 07:10 | -30.33572 | 26.98677 | 34042 ft | 448 kts | 204° |
| 2026-05-07 07:10 | -30.39483 | 26.96394 | 34034 ft | 448 kts | 204° |
| 2026-05-07 07:11 | -30.45386 | 26.94112 | 34036 ft | 447 kts | 204° |
| 2026-05-07 07:11 | -30.51253 | 26.91841 | 34039 ft | 446 kts | 204° |
| 2026-05-07 07:12 | -30.57124 | 26.89567 | 34033 ft | 443 kts | 204° |
| 2026-05-07 07:12 | -30.62950 | 26.87306 | 34032 ft | 440 kts | 204° |
| 2026-05-07 07:13 | -30.68745 | 26.85054 | 34020 ft | 437 kts | 204° |
| 2026-05-07 07:13 | -30.74493 | 26.82817 | 34019 ft | 434 kts | 204° |
| 2026-05-07 07:14 | -30.80212 | 26.80590 | 34024 ft | 431 kts | 204° |
| 2026-05-07 07:14 | -30.85882 | 26.78376 | 34017 ft | 428 kts | 204° |
| 2026-05-07 07:15 | -30.91505 | 26.76176 | 34018 ft | 425 kts | 204° |
| 2026-05-07 07:15 | -30.97073 | 26.73995 | 34016 ft | 424 kts | 204° |
| 2026-05-07 07:16 | -31.02674 | 26.71797 | 34021 ft | 426 kts | 204° |
| 2026-05-07 07:16 | -31.08297 | 26.69587 | 34017 ft | 428 kts | 204° |
| 2026-05-07 07:17 | -31.13950 | 26.67365 | 34029 ft | 429 kts | 204° |
| 2026-05-07 07:17 | -31.19629 | 26.65129 | 34019 ft | 431 kts | 204° |
| 2026-05-07 07:18 | -31.25331 | 26.62882 | 34021 ft | 433 kts | 204° |
| 2026-05-07 07:18 | -31.31050 | 26.60625 | 34046 ft | 434 kts | 204° |
| 2026-05-07 07:19 | -31.36786 | 26.58360 | 34024 ft | 435 kts | 204° |
| 2026-05-07 07:19 | -31.42513 | 26.56094 | 34016 ft | 434 kts | 204° |
| 2026-05-07 07:20 | -31.48234 | 26.53827 | 34008 ft | 433 kts | 204° |
| 2026-05-07 07:20 | -31.53935 | 26.51566 | 34001 ft | 431 kts | 204° |
| 2026-05-07 07:21 | -31.59613 | 26.49313 | 34023 ft | 430 kts | 204° |
| 2026-05-07 07:21 | -31.65260 | 26.47070 | 34005 ft | 428 kts | 204° |
| 2026-05-07 07:22 | -31.70885 | 26.44832 | 34011 ft | 426 kts | 204° |
| 2026-05-07 07:22 | -31.76456 | 26.42612 | 33997 ft | 425 kts | 204° |
| 2026-05-07 07:23 | -31.82057 | 26.40377 | 33996 ft | 424 kts | 204° |
| 2026-05-07 07:23 | -31.87649 | 26.38143 | 34006 ft | 425 kts | 204° |
| 2026-05-07 07:24 | -31.93246 | 26.35904 | 34003 ft | 424 kts | 204° |
| 2026-05-07 07:24 | -31.98830 | 26.33670 | 33989 ft | 423 kts | 204° |
| 2026-05-07 07:25 | -32.04391 | 26.31449 | 33448 ft | 417 kts | 204° |
| 2026-05-07 07:25 | -32.07125 | 26.30358 | 33016 ft | 411 kts | 204° |
| 2026-05-07 07:25 | -32.09818 | 26.29281 | 32597 ft | 407 kts | 204° |
| 2026-05-07 07:26 | -32.12487 | 26.28212 | 32209 ft | 402 kts | 203° |
| 2026-05-07 07:26 | -32.15091 | 26.27168 | 31783 ft | 398 kts | 203° |
| 2026-05-07 07:26 | -32.17707 | 26.26117 | 31359 ft | 395 kts | 202° |
| 2026-05-07 07:26 | -32.20304 | 26.25074 | 30943 ft | 392 kts | 202° |
| 2026-05-07 07:27 | -32.22871 | 26.24042 | 30544 ft | 388 kts | 202° |
| 2026-05-07 07:27 | -32.25420 | 26.23017 | 30139 ft | 386 kts | 202° |
| 2026-05-07 07:27 | -32.27961 | 26.21994 | 29661 ft | 383 kts | 202° |
| 2026-05-07 07:27 | -32.30445 | 26.20994 | 29208 ft | 380 kts | 202° |
| 2026-05-07 07:28 | -32.32937 | 26.19990 | 28787 ft | 376 kts | 202° |
| 2026-05-07 07:28 | -32.35403 | 26.18997 | 28363 ft | 373 kts | 202° |
| 2026-05-07 07:28 | -32.37854 | 26.18009 | 27939 ft | 370 kts | 202° |
| 2026-05-07 07:28 | -32.40285 | 26.17028 | 27547 ft | 367 kts | 202° |
| 2026-05-07 07:29 | -32.42702 | 26.16052 | 27123 ft | 365 kts | 202° |
| 2026-05-07 07:29 | -32.45097 | 26.15082 | 26723 ft | 362 kts | 202° |
| 2026-05-07 07:29 | -32.47450 | 26.14128 | 26328 ft | 360 kts | 202° |
| 2026-05-07 07:29 | -32.49816 | 26.13168 | 25925 ft | 359 kts | 202° |
| 2026-05-07 07:30 | -32.52174 | 26.12210 | 25526 ft | 358 kts | 202° |
| 2026-05-07 07:30 | -32.54556 | 26.11243 | 25106 ft | 357 kts | 202° |
| 2026-05-07 07:30 | -32.56873 | 26.10301 | 24706 ft | 356 kts | 202° |
| 2026-05-07 07:30 | -32.59215 | 26.09349 | 24309 ft | 355 kts | 202° |
| 2026-05-07 07:31 | -32.61551 | 26.08398 | 23885 ft | 355 kts | 202° |
| 2026-05-07 07:31 | -32.63891 | 26.07445 | 23456 ft | 355 kts | 202° |
| 2026-05-07 07:31 | -32.66224 | 26.06495 | 23013 ft | 353 kts | 202° |
| 2026-05-07 07:31 | -32.68540 | 26.05552 | 22603 ft | 351 kts | 202° |
| 2026-05-07 07:32 | -32.70844 | 26.04612 | 22179 ft | 349 kts | 202° |
| 2026-05-07 07:32 | -32.73132 | 26.03679 | 21782 ft | 346 kts | 202° |
| 2026-05-07 07:32 | -32.75399 | 26.02754 | 21393 ft | 344 kts | 202° |
| 2026-05-07 07:32 | -32.77650 | 26.01834 | 20999 ft | 341 kts | 201° |
| 2026-05-07 07:33 | -32.79889 | 26.00920 | 20637 ft | 339 kts | 202° |
| 2026-05-07 07:33 | -32.82120 | 26.00008 | 20233 ft | 338 kts | 202° |
| 2026-05-07 07:33 | -32.84337 | 25.99101 | 19842 ft | 337 kts | 202° |
| 2026-05-07 07:33 | -32.86556 | 25.98196 | 19406 ft | 337 kts | 201° |
| 2026-05-07 07:34 | -32.88770 | 25.97293 | 19045 ft | 335 kts | 201° |
| 2026-05-07 07:34 | -32.90971 | 25.96396 | 18663 ft | 334 kts | 201° |
| 2026-05-07 07:34 | -32.93168 | 25.95499 | 18271 ft | 333 kts | 201° |
| 2026-05-07 07:34 | -32.95356 | 25.94605 | 17823 ft | 332 kts | 200° |
| 2026-05-07 07:35 | -32.97505 | 25.93727 | 17445 ft | 329 kts | 200° |
| 2026-05-07 07:35 | -32.99692 | 25.92833 | 17047 ft | 326 kts | 200° |
| 2026-05-07 07:35 | -33.01824 | 25.91960 | 16688 ft | 323 kts | 200° |
| 2026-05-07 07:35 | -33.03925 | 25.91100 | 16309 ft | 321 kts | 200° |
| 2026-05-07 07:36 | -33.06026 | 25.90239 | 15947 ft | 318 kts | 200° |
| 2026-05-07 07:36 | -33.08110 | 25.89385 | 15587 ft | 315 kts | 200° |
| 2026-05-07 07:36 | -33.10174 | 25.88538 | 15239 ft | 313 kts | 200° |
| 2026-05-07 07:36 | -33.12221 | 25.87698 | 14878 ft | 310 kts | 200° |
| 2026-05-07 07:37 | -33.14254 | 25.86864 | 14517 ft | 307 kts | 200° |
| 2026-05-07 07:37 | -33.16268 | 25.86037 | 14163 ft | 305 kts | 200° |
| 2026-05-07 07:37 | -33.18287 | 25.85268 | 13817 ft | 304 kts | 195° |
| 2026-05-07 07:37 | -33.20394 | 25.84926 | 13193 ft | 306 kts | 187° |
| 2026-05-07 07:38 | -33.22488 | 25.84746 | 12771 ft | 296 kts | 187° |
| 2026-05-07 07:38 | -33.24507 | 25.84575 | 12408 ft | 285 kts | 187° |
| 2026-05-07 07:38 | -33.26456 | 25.84407 | 12072 ft | 276 kts | 188° |
| 2026-05-07 07:38 | -33.28333 | 25.84240 | 11774 ft | 268 kts | 187° |
| 2026-05-07 07:39 | -33.30209 | 25.84068 | 11507 ft | 274 kts | 188° |
| 2026-05-07 07:39 | -33.32147 | 25.83886 | 11180 ft | 284 kts | 188° |
| 2026-05-07 07:39 | -33.34122 | 25.83701 | 10791 ft | 285 kts | 188° |
| 2026-05-07 07:39 | -33.36089 | 25.83516 | 10494 ft | 282 kts | 188° |
| 2026-05-07 07:40 | -33.38028 | 25.83335 | 10342 ft | 275 kts | 187° |
| 2026-05-07 07:40 | -33.39885 | 25.83163 | 10198 ft | 268 kts | 188° |
| 2026-05-07 07:40 | -33.41719 | 25.82992 | 10087 ft | 260 kts | 188° |
| 2026-05-07 07:40 | -33.43496 | 25.82825 | 9950 ft | 252 kts | 188° |
| 2026-05-07 07:41 | -33.45220 | 25.82663 | 9770 ft | 247 kts | 188° |
| 2026-05-07 07:41 | -33.46913 | 25.82502 | 9601 ft | 242 kts | 188° |
| 2026-05-07 07:41 | -33.48588 | 25.82343 | 9374 ft | 242 kts | 188° |
| 2026-05-07 07:41 | -33.50278 | 25.82181 | 9078 ft | 245 kts | 188° |
| 2026-05-07 07:42 | -33.51984 | 25.82017 | 8822 ft | 247 kts | 188° |
| 2026-05-07 07:42 | -33.53709 | 25.81852 | 8518 ft | 248 kts | 188° |
| 2026-05-07 07:42 | -33.55415 | 25.81690 | 8276 ft | 245 kts | 188° |
| 2026-05-07 07:42 | -33.57109 | 25.81530 | 8006 ft | 243 kts | 188° |
| 2026-05-07 07:43 | -33.58782 | 25.81371 | 7758 ft | 241 kts | 188° |
| 2026-05-07 07:43 | -33.60447 | 25.81213 | 7487 ft | 239 kts | 188° |
| 2026-05-07 07:43 | -33.62102 | 25.81055 | 7228 ft | 238 kts | 188° |
| 2026-05-07 07:43 | -33.63747 | 25.80898 | 6943 ft | 237 kts | 188° |
| 2026-05-07 07:44 | -33.65385 | 25.80743 | 6677 ft | 236 kts | 188° |
| 2026-05-07 07:44 | -33.66999 | 25.80590 | 6391 ft | 229 kts | 188° |
| 2026-05-07 07:44 | -33.68565 | 25.80442 | 6116 ft | 222 kts | 188° |
| 2026-05-07 07:44 | -33.70075 | 25.80299 | 5862 ft | 214 kts | 188° |
| 2026-05-07 07:45 | -33.71527 | 25.80161 | 5637 ft | 204 kts | 189° |
| 2026-05-07 07:45 | -33.72898 | 25.80031 | 5385 ft | 196 kts | 189° |
| 2026-05-07 07:45 | -33.74214 | 25.79907 | 5229 ft | 182 kts | 189° |
| 2026-05-07 07:45 | -33.75435 | 25.79792 | 5015 ft | 172 kts | 190° |
| 2026-05-07 07:46 | -33.76613 | 25.79677 | 4862 ft | 170 kts | 190° |
| 2026-05-07 07:46 | -33.77802 | 25.79561 | 4634 ft | 170 kts | 190° |
| 2026-05-07 07:46 | -33.78961 | 25.79451 | 4464 ft | 164 kts | 190° |
| 2026-05-07 07:46 | -33.80085 | 25.79343 | 4263 ft | 162 kts | 191° |
| 2026-05-07 07:47 | -33.81217 | 25.79233 | 4094 ft | 164 kts | 190° |
| 2026-05-07 07:47 | -33.82352 | 25.79124 | 4028 ft | 164 kts | 190° |
| 2026-05-07 07:47 | -33.83499 | 25.79013 | 3949 ft | 167 kts | 190° |
| 2026-05-07 07:47 | -33.84648 | 25.78902 | 3868 ft | 168 kts | 190° |
| 2026-05-07 07:48 | -33.85800 | 25.78793 | 3785 ft | 163 kts | 191° |
| 2026-05-07 07:48 | -33.86885 | 25.78692 | 3693 ft | 149 kts | 191° |
| 2026-05-07 07:48 | -33.87883 | 25.78600 | 3552 ft | 139 kts | 192° |
| 2026-05-07 07:48 | -33.88850 | 25.78456 | 3502 ft | 139 kts | 204° |
| 2026-05-07 07:49 | -33.89691 | 25.77930 | 3257 ft | 136 kts | 215° |
| 2026-05-07 07:49 | -33.90365 | 25.77169 | 3072 ft | 126 kts | 231° |
| 2026-05-07 07:49 | -33.90715 | 25.76602 | 3001 ft | 132 kts | 231° |
| 2026-05-07 07:49 | -33.91455 | 25.75338 | 2778 ft | 143 kts | 234° |
| 2026-05-07 07:50 | -33.91812 | 25.74674 | 2660 ft | 143 kts | 234° |
| 2026-05-07 07:50 | -33.92336 | 25.73673 | 2468 ft | 139 kts | 234° |
| 2026-05-07 07:50 | -33.92841 | 25.72696 | 2299 ft | 136 kts | 232° |
| 2026-05-07 07:50 | -33.93512 | 25.71396 | 2058 ft | 139 kts | 233° |
| 2026-05-07 07:51 | -33.93857 | 25.70725 | 1932 ft | 139 kts | 233° |
| 2026-05-07 07:51 | -33.94367 | 25.69735 | 1741 ft | 139 kts | 234° |
| 2026-05-07 07:51 | -33.94871 | 25.68757 | 1553 ft | 138 kts | 234° |
| 2026-05-07 07:51 | -33.95355 | 25.67815 | 1363 ft | 128 kts | 234° |
| 2026-05-07 07:52 | -33.95814 | 25.66923 | 1237 ft | 122 kts | 234° |
| 2026-05-07 07:52 | -33.96273 | 25.66035 | 1062 ft | 129 kts | 233° |
| 2026-05-07 07:52 | -33.96762 | 25.65087 | 884 ft | 137 kts | 234° |
| 2026-05-07 07:52 | -33.97264 | 25.64113 | 681 ft | 140 kts | 236° |
| 2026-05-07 07:53 | -33.97782 | 25.63108 | 513 ft | 138 kts | 236° |
| 2026-05-07 07:53 | -33.98280 | 25.62141 | 292 ft | 135 kts | 237° |
| 2026-05-07 07:53 | -33.98736 | 25.61248 | 238 ft | 107 kts | 239° |
| 2026-05-07 07:53 | -33.99017 | 25.60704 | 230 ft | 46 kts | 238° |
| 2026-05-07 07:54 | -33.99168 | 25.60412 | 231 ft | 35 kts | 239° |
| 2026-05-07 07:54 | -33.99254 | 25.60244 | 233 ft | 18 kts | 237° |
| 2026-05-07 07:54 | -33.99244 | 25.60145 | 234 ft | 8 kts | 326° |
| 2026-05-07 07:54 | -33.99196 | 25.60108 | 234 ft | 8 kts | 329° |
| 2026-05-07 07:55 | -33.99141 | 25.60090 | 231 ft | 9 kts | 12° |
| 2026-05-07 07:55 | -33.99094 | 25.60143 | 229 ft | 11 kts | 53° |
| 2026-05-07 07:55 | -33.99038 | 25.60245 | 227 ft | 17 kts | 57° |
| 2026-05-07 07:55 | -33.98976 | 25.60362 | 227 ft | 16 kts | 57° |
| 2026-05-07 07:56 | -33.98917 | 25.60470 | 229 ft | 15 kts | 57° |
| 2026-05-07 07:56 | -33.98860 | 25.60576 | 229 ft | 15 kts | 57° |
| 2026-05-07 07:56 | -33.98806 | 25.60676 | 229 ft | 14 kts | 56° |
| 2026-05-07 07:56 | -33.98754 | 25.60772 | 230 ft | 13 kts | 56° |
| 2026-05-07 07:57 | -33.98704 | 25.60863 | 229 ft | 13 kts | 57° |
| 2026-05-07 07:57 | -33.98657 | 25.60954 | 229 ft | 13 kts | 58° |
| 2026-05-07 07:57 | -33.98611 | 25.61041 | 230 ft | 12 kts | 58° |
| 2026-05-07 07:57 | -33.98567 | 25.61128 | 230 ft | 12 kts | 59° |
| 2026-05-07 07:58 | -33.98532 | 25.61195 | 229 ft | 9 kts | 57° |
| 2026-05-07 07:58 | -33.98508 | 25.61240 | 229 ft | 6 kts | 56° |
| 2026-05-07 07:58 | -33.98471 | 25.61237 | 229 ft | 6 kts | 331° |
| 2026-05-07 07:58 | -33.98452 | 25.61223 | 230 ft | 1 kts | 328° |
| 2026-05-07 07:59 | -33.98448 | 25.61220 | 230 ft | 0 kts | 328° |